Metar
Geneve

LSGG 310720Z 05015KT 9999 BKN038 02/M06 Q1021 NOSIG

Payerne

LSMP 310720Z 05012KT CAVOK 01/M07 Q1022 RMK BLU

Eplatures

LSGC 310720Z 06008KT 040V120 CAVOK M01/M13 Q1019

Berne

LSZB 310720Z VRB03KT CAVOK 01/M06 Q1021 NOSIG

Granges

LSZG 310720Z 07010KT CAVOK 02/M07 Q1023 NOSIG

Sion

LSGS 310720Z 26005KT 9999 BKN035 04/M01 Q1020

Annecy

LFLP 310730Z AUTO 03008KT 9999 OVC029 02/M03 Q1020

Taf
Geneve

TAF LSGG 310525Z 3106/0112 04015KT 9999 BKN040 TX08/3115Z TN02/3106Z TNM02/0105Z BECMG 3108/3111 CAVOK BECMG 3120/3123 04005KT

Eplatures

TAF AMD TAF AMD LSGC 270646Z 2706/2718 VRB03KT 9000 OVC015 BECMG 2712/2715 9999 SCT020

Berne

TAF AMD TAF AMD LSZB 222054Z 2220/2224 CNL

Granges

TAF AMD LSZG 222054Z 2220/2224 CNL

Sion

TAF AMD LSGS 242023Z 2415/2424 CNL

Annecy

TAF AMD LFLP 241400Z 2420/2515 CNL